createdAt,value
2023-01-13T00:01:14.185Z,48.47
2023-01-13T00:03:42.595Z,44.70
2023-01-13T00:06:13.815Z,47.30
2023-01-13T00:08:42.072Z,48.75
2023-01-13T00:11:11.261Z,52.38
2023-01-13T00:13:40.067Z,50.05
2023-01-13T00:16:13.145Z,49.92
2023-01-13T00:18:41.452Z,43.28
2023-01-13T00:21:13.796Z,50.53
2023-01-13T00:23:42.521Z,52.53
2023-01-13T00:26:14.992Z,43.22
2023-01-13T00:28:43.347Z,41.65
2023-01-13T00:31:14.565Z,49.83
2023-01-13T00:33:43.255Z,44.10
2023-01-13T00:36:14.819Z,44.58
2023-01-13T00:38:44.084Z,50.60
2023-01-13T00:41:14.738Z,44.40
2023-01-13T00:43:43.311Z,44.95
2023-01-13T00:46:16.049Z,51.13
2023-01-13T00:48:44.567Z,49.63
2023-01-13T00:51:15.003Z,50.95
2023-01-13T00:53:44.825Z,47.38
2023-01-13T00:56:16.642Z,53.53
2023-01-13T00:58:46.088Z,50.67
2023-01-13T01:01:18.324Z,50.45
2023-01-13T01:03:51.042Z,52.22
2023-01-13T01:06:21.235Z,46.22
2023-01-13T01:08:49.458Z,47.65
2023-01-13T01:11:20.505Z,47.55
2023-01-13T01:13:49.146Z,50.80
2023-01-13T01:16:20.422Z,52.55
2023-01-13T01:18:50.119Z,47.00
2023-01-13T01:21:19.471Z,48.25
2023-01-13T01:23:47.903Z,45.05
2023-01-13T01:26:18.239Z,43.70
2023-01-13T01:28:47.087Z,43.65
2023-01-13T01:31:17.630Z,45.50
2023-01-13T01:33:47.775Z,47.90
2023-01-13T01:36:17.528Z,38.67
2023-01-13T01:38:46.395Z,45.33
2023-01-13T01:41:17.073Z,46.80
2023-01-13T01:44:07.148Z,46.03
2023-01-13T01:46:38.149Z,47.30
2023-01-13T01:49:17.250Z,39.92
2023-01-13T01:51:50.263Z,46.90
2023-01-13T01:54:23.375Z,45.00
2023-01-13T01:56:52.169Z,42.22
2023-01-13T01:59:25.308Z,45.45
2023-01-13T02:01:59.541Z,44.20
2023-01-13T02:04:38.489Z,44.53
2023-01-13T02:07:07.283Z,41.88
2023-01-13T02:09:37.616Z,41.72
2023-01-13T02:12:23.508Z,46.75
2023-01-13T02:14:51.809Z,42.97
2023-01-13T02:17:30.080Z,37.35
2023-01-13T02:20:36.671Z,39.20
2023-01-13T02:23:56.278Z,38.28
2023-01-13T02:26:52.349Z,36.92
2023-01-13T02:30:07.540Z,32.00
2023-01-13T02:32:41.541Z,34.47
2023-01-13T02:35:16.019Z,35.45
2023-01-13T02:37:45.504Z,31.77
2023-01-13T02:40:19.347Z,33.88
2023-01-13T02:43:09.708Z,34.22
2023-01-13T02:45:43.423Z,31.85
2023-01-13T02:48:14.103Z,30.50
2023-01-13T02:50:48.667Z,32.55
2023-01-13T02:53:22.917Z,37.00
2023-01-13T02:55:54.263Z,34.88
2023-01-13T02:58:27.250Z,36.22
2023-01-13T03:00:56.990Z,40.85
2023-01-13T03:03:25.616Z,30.90
2023-01-13T03:05:57.513Z,37.17
2023-01-13T03:08:42.952Z,33.03
2023-01-13T03:11:14.084Z,34.60
2023-01-13T03:14:09.254Z,31.60
2023-01-13T03:16:53.772Z,31.58
2023-01-13T03:19:37.352Z,35.25
2023-01-13T03:22:19.001Z,31.02
2023-01-13T03:24:54.279Z,35.20
2023-01-13T03:27:27.135Z,37.55
2023-01-13T03:29:59.669Z,34.60
2023-01-13T03:32:33.705Z,37.20
2023-01-13T03:35:08.739Z,36.40
2023-01-13T03:37:41.156Z,39.30
2023-01-13T03:40:15.348Z,33.75
2023-01-13T03:43:06.198Z,31.52
2023-01-13T03:45:36.136Z,32.90
2023-01-13T03:48:10.034Z,40.65
2023-01-13T03:50:42.141Z,38.53
2023-01-13T03:53:15.163Z,35.35
2023-01-13T03:55:49.131Z,39.28
2023-01-13T03:58:21.724Z,37.35
2023-01-13T04:00:54.855Z,35.75
2023-01-13T04:03:30.645Z,38.28
2023-01-13T04:06:11.243Z,35.17
2023-01-13T04:08:48.373Z,38.65
2023-01-13T04:11:20.995Z,36.80
2023-01-13T04:13:50.776Z,37.20
2023-01-13T04:16:19.081Z,35.70
2023-01-13T04:18:51.263Z,36.72
2023-01-13T04:21:19.418Z,38.05
2023-01-13T04:23:51.420Z,37.50
2023-01-13T04:26:20.401Z,38.85
2023-01-13T04:28:49.148Z,41.28
2023-01-13T04:31:17.317Z,37.38
2023-01-13T04:33:45.532Z,35.30
2023-01-13T04:36:15.073Z,38.85
2023-01-13T04:38:43.228Z,41.42
2023-01-13T04:41:11.480Z,39.20
2023-01-13T04:43:39.747Z,37.65
2023-01-13T04:46:07.982Z,35.13
2023-01-13T04:48:36.213Z,38.13
2023-01-13T04:51:04.348Z,38.15
2023-01-13T04:53:33.867Z,40.83
2023-01-13T04:56:01.983Z,38.92
2023-01-13T04:58:30.052Z,46.10
2023-01-13T05:00:58.261Z,39.17
2023-01-13T05:03:26.885Z,38.13
2023-01-13T05:05:55.038Z,40.22
2023-01-13T05:08:23.209Z,40.90
2023-01-13T05:10:52.689Z,41.90
2023-01-13T05:13:38.170Z,41.80
2023-01-13T05:16:24.681Z,41.10
2023-01-13T05:18:52.884Z,39.28
2023-01-13T05:21:38.385Z,42.13
2023-01-13T05:24:24.590Z,35.13
2023-01-13T05:26:54.108Z,36.80
2023-01-13T05:29:22.350Z,38.50
2023-01-13T05:31:51.008Z,41.10
2023-01-13T05:34:19.156Z,43.30
2023-01-13T05:36:47.330Z,44.97
2023-01-13T05:39:15.644Z,48.70
2023-01-13T05:42:01.443Z,41.13
2023-01-13T05:44:31.008Z,46.10
2023-01-13T05:46:59.122Z,45.65
2023-01-13T05:49:27.379Z,43.17
2023-01-13T05:51:57.632Z,43.30
2023-01-13T05:54:25.814Z,49.67
2023-01-13T05:56:53.942Z,51.22
2023-01-13T05:59:22.134Z,48.30
2023-01-13T06:01:51.864Z,51.22
2023-01-13T06:04:20.106Z,53.15
2023-01-13T06:06:48.987Z,54.17
2023-01-13T06:09:17.316Z,47.22
2023-01-13T06:11:46.512Z,59.33
2023-01-13T06:14:14.861Z,44.55
2023-01-13T06:16:42.995Z,49.40
2023-01-13T06:19:14.058Z,45.28
2023-01-13T06:21:43.568Z,46.92
2023-01-13T06:24:12.273Z,44.55
2023-01-13T06:26:41.932Z,54.45
2023-01-13T06:29:14.116Z,50.30
2023-01-13T06:31:42.330Z,52.80
2023-01-13T06:34:15.839Z,57.40
2023-01-13T06:36:48.622Z,61.78
2023-01-13T06:39:21.349Z,59.80
2023-01-13T06:42:08.197Z,61.47
2023-01-13T06:44:36.409Z,64.85
2023-01-13T06:47:04.981Z,55.63
2023-01-13T06:49:34.536Z,54.28
2023-01-13T06:52:02.753Z,52.33
2023-01-13T06:54:30.918Z,56.78
2023-01-13T06:56:59.103Z,50.47
2023-01-13T06:59:27.326Z,47.22
2023-01-13T07:01:55.676Z,49.88
2023-01-13T07:04:24.089Z,44.00
2023-01-13T07:06:53.793Z,46.33
2023-01-13T07:09:21.920Z,44.90
2023-01-13T07:11:52.088Z,55.63
2023-01-13T07:14:37.979Z,42.58
2023-01-13T07:17:06.432Z,42.47
2023-01-13T07:19:34.624Z,41.22
2023-01-13T07:22:04.195Z,38.00
2023-01-13T07:24:32.428Z,40.50
2023-01-13T07:27:00.617Z,41.97
2023-01-13T07:29:28.808Z,38.67
2023-01-13T07:31:59.002Z,33.58
2023-01-13T07:34:27.102Z,33.90
2023-01-13T07:36:55.366Z,33.30
2023-01-13T07:39:24.861Z,31.00
2023-01-13T07:42:10.930Z,30.15
2023-01-13T07:44:40.940Z,28.13
2023-01-13T07:47:11.237Z,34.47
2023-01-13T07:49:39.367Z,26.88
2023-01-13T07:52:07.566Z,29.25
2023-01-13T07:54:40.932Z,31.45
2023-01-13T07:57:10.553Z,30.02
2023-01-13T07:59:38.807Z,33.85
2023-01-13T08:02:07.568Z,29.27
2023-01-13T08:04:35.792Z,30.13
2023-01-13T08:07:06.681Z,29.45
2023-01-13T08:09:36.255Z,34.55
2023-01-13T08:12:21.946Z,35.55
2023-01-13T08:14:51.809Z,33.63
2023-01-13T08:17:20.702Z,39.35
2023-01-13T08:19:49.151Z,36.20
2023-01-13T08:22:17.345Z,35.65
2023-01-13T08:24:50.918Z,39.22
2023-01-13T08:27:20.355Z,33.38
2023-01-13T08:29:48.587Z,34.15
2023-01-13T08:32:16.794Z,32.35
2023-01-13T08:34:45.006Z,31.42
2023-01-13T08:37:13.162Z,29.83
2023-01-13T08:39:45.317Z,29.95
2023-01-13T08:42:14.832Z,31.50
2023-01-13T08:44:43.007Z,34.20
2023-01-13T08:47:11.139Z,29.08
2023-01-13T08:49:39.274Z,34.13
2023-01-13T08:52:08.151Z,29.10
2023-01-13T08:54:36.377Z,32.10
2023-01-13T08:57:04.702Z,34.08
2023-01-13T08:59:34.857Z,33.20
2023-01-13T09:02:03.584Z,35.97
2023-01-13T09:04:32.298Z,30.08
2023-01-13T09:07:02.362Z,32.13
2023-01-13T09:09:30.561Z,32.70
2023-01-13T09:12:16.728Z,33.22
2023-01-13T09:14:46.358Z,36.33
2023-01-13T09:17:14.720Z,33.40
2023-01-13T09:19:42.953Z,34.63
2023-01-13T09:22:15.062Z,33.58
2023-01-13T09:24:43.298Z,30.48
2023-01-13T09:27:12.654Z,32.33
2023-01-13T09:29:40.819Z,31.35
2023-01-13T09:32:13.267Z,30.17
2023-01-13T09:34:59.329Z,27.15
2023-01-13T09:37:28.441Z,30.38
2023-01-13T09:39:56.777Z,30.08
2023-01-13T09:42:57.344Z,25.80
2023-01-13T09:45:29.780Z,31.45
2023-01-13T09:48:05.974Z,27.83
2023-01-13T09:50:49.023Z,20.05
2023-01-13T09:53:22.825Z,22.48
2023-01-13T09:55:51.340Z,25.75
2023-01-13T09:58:20.440Z,24.25
2023-01-13T10:01:02.109Z,23.25
2023-01-13T10:03:33.497Z,23.63
2023-01-13T10:06:06.970Z,21.75
2023-01-13T10:08:38.827Z,25.95
2023-01-13T10:11:27.730Z,23.15
2023-01-13T10:14:00.042Z,23.10
2023-01-13T10:16:42.212Z,22.02
2023-01-13T10:19:19.749Z,25.27
2023-01-13T10:22:09.271Z,24.67
2023-01-13T10:24:54.372Z,21.98
2023-01-13T10:27:30.592Z,20.95
2023-01-13T10:29:58.769Z,24.15
2023-01-13T10:32:26.919Z,22.15
2023-01-13T10:34:58.063Z,21.85
2023-01-13T10:37:28.817Z,33.63
2023-01-13T10:40:00.811Z,23.42
2023-01-13T10:42:29.300Z,23.30
2023-01-13T10:44:58.918Z,22.88
2023-01-13T10:47:29.731Z,23.00
2023-01-13T10:50:24.480Z,27.23
2023-01-13T10:53:01.753Z,24.80
2023-01-13T10:55:33.346Z,22.52
2023-01-13T10:58:14.167Z,25.65
2023-01-13T11:00:42.451Z,26.00
2023-01-13T11:03:16.704Z,24.52
2023-01-13T11:05:57.463Z,24.67
2023-01-13T11:08:27.818Z,24.23
2023-01-13T11:10:57.260Z,29.30
2023-01-13T11:13:31.882Z,24.25
2023-01-13T11:16:04.887Z,27.23
2023-01-13T11:18:43.682Z,27.13
2023-01-13T11:21:23.668Z,34.47
2023-01-13T11:24:07.160Z,27.92
2023-01-13T11:26:44.543Z,29.25
2023-01-13T11:29:19.190Z,26.25
2023-01-13T11:31:50.197Z,32.22
2023-01-13T11:34:29.177Z,27.88
2023-01-13T11:37:00.681Z,28.58
2023-01-13T11:39:35.172Z,28.58
2023-01-13T11:42:22.434Z,28.65
2023-01-13T11:44:57.884Z,28.08
2023-01-13T11:47:27.603Z,31.42
2023-01-13T11:49:56.084Z,31.23
2023-01-13T11:52:34.276Z,32.50
2023-01-13T11:55:22.618Z,36.30
2023-01-13T11:58:13.318Z,33.85
2023-01-13T12:01:10.873Z,38.05
2023-01-13T12:03:44.246Z,35.00
2023-01-13T12:06:23.052Z,35.60
2023-01-13T12:09:12.035Z,41.08
2023-01-13T12:12:07.515Z,32.80
2023-01-13T12:14:42.732Z,31.80
2023-01-13T12:17:21.842Z,35.50
2023-01-13T12:19:51.540Z,35.75
2023-01-13T12:22:25.169Z,41.47
2023-01-13T12:24:59.341Z,41.53
2023-01-13T12:27:36.357Z,39.28
2023-01-13T12:30:14.627Z,40.10
2023-01-13T12:32:43.538Z,40.08
2023-01-13T12:35:38.920Z,45.97
2023-01-13T12:38:12.167Z,41.08
2023-01-13T12:40:52.695Z,43.60
2023-01-13T12:43:40.467Z,41.47
2023-01-13T12:46:41.906Z,36.50
2023-01-13T12:49:27.468Z,37.15
2023-01-13T12:52:15.383Z,33.70
2023-01-13T12:55:10.317Z,34.72
2023-01-13T12:57:40.412Z,41.72
2023-01-13T13:00:18.442Z,39.08
2023-01-13T13:03:22.846Z,38.67
2023-01-13T13:05:58.091Z,40.33
2023-01-13T13:08:43.952Z,43.50
2023-01-13T13:11:53.909Z,39.22
2023-01-13T13:14:55.124Z,41.45
2023-01-13T13:17:45.105Z,37.45
2023-01-13T13:20:46.542Z,45.33
2023-01-13T13:23:49.073Z,41.47
2023-01-13T13:26:21.871Z,40.67
2023-01-13T13:29:00.553Z,41.83
2023-01-13T13:31:38.962Z,43.97
2023-01-13T13:34:23.206Z,44.38
2023-01-13T13:37:03.487Z,46.30
2023-01-13T13:39:51.227Z,43.10
2023-01-13T13:42:39.862Z,46.92
2023-01-13T13:45:34.157Z,42.28
2023-01-13T13:48:16.403Z,47.53
2023-01-13T13:50:50.643Z,48.03
2023-01-13T13:53:21.188Z,45.65
2023-01-13T13:55:59.743Z,48.75
2023-01-13T13:58:29.499Z,48.88
2023-01-13T14:00:58.785Z,41.88
2023-01-13T14:03:30.540Z,46.92
2023-01-13T14:06:08.163Z,43.33
2023-01-13T14:08:38.860Z,47.13
2023-01-13T14:11:26.475Z,45.65
2023-01-13T14:14:03.370Z,51.78
2023-01-13T14:16:32.892Z,47.97
2023-01-13T14:19:01.707Z,47.50
2023-01-13T14:21:31.866Z,43.08
2023-01-13T14:24:04.655Z,44.33
2023-01-13T14:26:33.701Z,50.08
2023-01-13T14:29:03.269Z,46.28
2023-01-13T14:31:32.937Z,47.53
2023-01-13T14:34:32.126Z,46.75
2023-01-13T14:36:54.521Z,47.78
2023-01-13T14:39:27.352Z,54.70
2023-01-13T14:41:55.520Z,49.03
2023-01-13T14:44:27.045Z,49.70
2023-01-13T14:46:57.383Z,44.63
2023-01-13T14:49:30.740Z,52.67
2023-01-13T14:52:12.459Z,47.80
2023-01-13T14:54:46.133Z,46.72
2023-01-13T14:57:16.452Z,49.33
2023-01-13T14:59:51.835Z,51.28
2023-01-13T15:02:44.770Z,46.85
2023-01-13T15:05:42.725Z,47.45
2023-01-13T15:08:31.759Z,51.17
2023-01-13T15:11:01.561Z,44.80
2023-01-13T15:13:37.284Z,48.70
2023-01-13T15:16:17.667Z,44.60
2023-01-13T15:18:46.167Z,50.65
2023-01-13T15:21:15.811Z,45.90
2023-01-13T15:23:47.311Z,49.47
2023-01-13T15:26:24.606Z,41.83
2023-01-13T15:28:53.924Z,46.20
2023-01-13T15:31:23.201Z,48.60
2023-01-13T15:33:51.841Z,49.80
2023-01-13T15:36:25.871Z,43.95
2023-01-13T15:38:55.678Z,42.78
2023-01-13T15:41:37.886Z,46.17
2023-01-13T15:44:23.746Z,39.95
2023-01-13T15:46:53.551Z,41.75
2023-01-13T15:49:27.849Z,40.30
2023-01-13T15:51:56.009Z,39.35
2023-01-13T15:54:25.674Z,41.67
2023-01-13T15:56:54.873Z,34.08
2023-01-13T15:59:31.427Z,35.25
2023-01-13T16:01:59.678Z,35.30
2023-01-13T16:04:28.339Z,34.13
2023-01-13T16:06:56.596Z,48.47
2023-01-13T16:09:26.374Z,38.88
2023-01-13T16:11:54.699Z,40.67
2023-01-13T16:14:23.154Z,42.78
2023-01-13T16:16:51.840Z,41.45
2023-01-13T16:19:20.121Z,41.90
2023-01-13T16:21:48.288Z,37.53
2023-01-13T16:24:16.824Z,42.42
2023-01-13T16:26:46.508Z,40.40
2023-01-13T16:29:14.745Z,44.42
2023-01-13T16:31:43.093Z,42.75
2023-01-13T16:34:13.676Z,43.10
2023-01-13T16:36:42.011Z,40.80
2023-01-13T16:39:21.787Z,47.47
2023-01-13T16:41:51.792Z,41.05
2023-01-13T16:44:20.299Z,43.85
2023-01-13T16:46:48.783Z,42.83
2023-01-13T16:49:18.579Z,44.70
2023-01-13T16:51:46.783Z,46.95
2023-01-13T16:54:15.241Z,43.90
2023-01-13T16:56:43.464Z,48.47
2023-01-13T16:59:14.821Z,52.67
2023-01-13T17:01:46.587Z,45.58
2023-01-13T17:04:17.758Z,45.53
2023-01-13T17:06:52.202Z,46.22
2023-01-13T17:09:22.999Z,41.28
2023-01-13T17:11:52.145Z,42.63
2023-01-13T17:14:23.737Z,41.58
2023-01-13T17:16:54.835Z,40.30
2023-01-13T17:19:24.260Z,47.58
2023-01-13T17:21:52.813Z,47.47
2023-01-13T17:24:21.718Z,48.00
2023-01-13T17:26:51.823Z,40.70
2023-01-13T17:29:23.659Z,41.80
2023-01-13T17:31:52.690Z,43.28
2023-01-13T17:34:22.287Z,46.13
2023-01-13T17:36:51.555Z,48.45
2023-01-13T17:39:22.282Z,50.45
2023-01-13T17:41:51.275Z,45.20
2023-01-13T17:44:24.591Z,49.45
2023-01-13T17:46:54.849Z,50.08
2023-01-13T17:49:23.373Z,46.42
2023-01-13T17:51:53.132Z,47.83
2023-01-13T17:54:22.772Z,47.45
2023-01-13T17:56:51.829Z,53.50
2023-01-13T17:59:22.903Z,52.38
2023-01-13T18:01:51.920Z,44.63
2023-01-13T18:04:22.225Z,49.15
2023-01-13T18:06:51.710Z,49.63
2023-01-13T18:09:20.385Z,49.60
2023-01-13T18:11:49.313Z,44.38
2023-01-13T18:14:19.307Z,44.08
2023-01-13T18:16:49.914Z,47.65
2023-01-13T18:19:36.390Z,51.53
2023-01-13T18:22:23.294Z,52.13
2023-01-13T18:25:10.451Z,54.75
2023-01-13T18:27:41.900Z,53.15
2023-01-13T18:30:13.932Z,54.25
2023-01-13T18:32:44.123Z,47.42
2023-01-13T18:35:13.127Z,55.00
2023-01-13T18:37:44.489Z,53.75
2023-01-13T18:40:15.326Z,54.10
2023-01-13T18:42:52.911Z,57.80
2023-01-13T18:45:24.767Z,50.55
2023-01-13T18:47:58.409Z,47.53
2023-01-13T18:50:28.257Z,44.53
2023-01-13T18:52:57.963Z,52.72
2023-01-13T18:55:29.629Z,48.08
2023-01-13T18:58:00.092Z,50.30
2023-01-13T19:00:29.835Z,46.67
2023-01-13T19:05:35.651Z,50.90
2023-01-13T19:08:07.701Z,51.22
2023-01-13T19:10:36.732Z,56.35
2023-01-13T19:13:06.416Z,51.20
2023-01-13T19:15:38.371Z,53.22
2023-01-13T19:18:09.529Z,55.25
2023-01-13T19:20:39.648Z,54.40
2023-01-13T19:23:09.790Z,54.08
2023-01-13T19:25:39.269Z,55.05
2023-01-13T19:28:08.456Z,51.97
2023-01-13T19:30:37.868Z,55.35
2023-01-13T19:33:07.004Z,58.53
2023-01-13T19:35:43.673Z,50.85
2023-01-13T19:38:12.435Z,52.65
2023-01-13T19:40:41.665Z,53.05
2023-01-13T19:43:25.802Z,54.83
2023-01-13T19:45:55.207Z,56.35
2023-01-13T19:48:29.532Z,54.92
2023-01-13T19:51:00.851Z,57.47
2023-01-13T19:53:30.287Z,61.70
2023-01-13T19:55:59.264Z,53.30
2023-01-13T19:58:30.465Z,60.05
2023-01-13T20:00:59.025Z,55.30
2023-01-13T20:03:31.153Z,52.50
2023-01-13T20:06:09.113Z,53.45
2023-01-13T20:12:29.486Z,49.10
2023-01-13T20:14:59.503Z,53.80
2023-01-13T20:17:30.203Z,53.00
2023-01-13T20:20:01.245Z,62.00
2023-01-13T20:22:31.946Z,56.03
2023-01-13T20:25:07.133Z,61.72
2023-01-13T20:27:36.765Z,60.20
2023-01-13T20:30:09.794Z,61.40
2023-01-13T20:32:39.639Z,63.80
2023-01-13T20:37:48.997Z,62.55
2023-01-13T20:40:18.585Z,69.38
2023-01-13T20:42:47.489Z,73.05
2023-01-13T20:45:21.141Z,68.03
2023-01-13T20:47:51.321Z,82.18
2023-01-13T20:50:22.944Z,75.80
2023-01-13T20:52:55.274Z,74.85
2023-01-13T20:55:24.385Z,72.43
2023-01-13T20:57:53.596Z,67.05
2023-01-13T21:00:23.137Z,55.80
2023-01-13T21:02:51.616Z,58.42
2023-01-13T21:05:20.514Z,60.65
2023-01-13T21:07:48.865Z,61.92
2023-01-13T21:10:19.245Z,59.97
2023-01-13T21:13:05.387Z,65.63
2023-01-13T21:15:33.665Z,63.50
2023-01-13T21:18:19.699Z,69.78
2023-01-13T21:20:48.199Z,73.65
2023-01-13T21:23:22.783Z,68.53
2023-01-13T21:25:52.631Z,60.90
2023-01-13T21:28:21.182Z,60.60
2023-01-13T21:30:50.215Z,58.83
2023-01-13T21:33:18.709Z,62.47
2023-01-13T21:35:46.924Z,72.72
2023-01-13T21:38:15.216Z,69.60
2023-01-13T21:40:43.490Z,65.80
2023-01-13T21:43:31.908Z,71.80
2023-01-13T21:46:31.969Z,94.00
2023-01-13T21:49:00.275Z,99.97
2023-01-13T21:51:29.054Z,99.90
2023-01-13T21:53:58.091Z,120.78
2023-01-13T21:56:26.983Z,90.90
2023-01-13T21:58:57.260Z,88.63
2023-01-13T22:01:25.608Z,84.65
2023-01-13T22:04:11.030Z,79.65
2023-01-13T22:06:39.499Z,80.28
2023-01-13T22:09:08.266Z,79.75
2023-01-13T22:11:36.446Z,70.45
2023-01-13T22:14:09.491Z,75.40
2023-01-13T22:16:41.754Z,80.63
2023-01-13T22:19:11.689Z,79.03
2023-01-13T22:21:40.097Z,69.13
2023-01-13T22:24:08.917Z,61.28
2023-01-13T22:26:37.249Z,62.95
2023-01-13T22:29:06.812Z,59.33
2023-01-13T22:31:35.371Z,60.78
2023-01-13T22:34:03.573Z,62.30
2023-01-13T22:36:31.826Z,54.50
2023-01-13T22:39:00.700Z,53.40
2023-01-13T22:41:29.098Z,50.15
2023-01-13T22:43:57.444Z,53.83
2023-01-13T22:46:27.068Z,53.05
2023-01-13T22:48:55.981Z,54.38
2023-01-13T22:51:25.223Z,48.13
2023-01-13T22:53:53.477Z,55.47
2023-01-13T22:56:23.650Z,51.45
2023-01-13T22:58:54.750Z,58.65
2023-01-13T23:01:24.445Z,55.05
2023-01-13T23:03:54.811Z,60.13
2023-01-13T23:06:24.362Z,52.05
2023-01-13T23:08:54.284Z,59.10
2023-01-13T23:11:24.750Z,57.88
2023-01-13T23:13:59.623Z,58.42
2023-01-13T23:16:30.038Z,62.92
2023-01-13T23:18:59.733Z,64.85
2023-01-13T23:21:31.026Z,65.72
2023-01-13T23:23:59.644Z,62.80
2023-01-13T23:26:28.303Z,63.60
2023-01-13T23:29:00.197Z,61.10
2023-01-13T23:31:28.533Z,68.40
2023-01-13T23:33:56.728Z,73.82
2023-01-13T23:36:28.246Z,76.20
2023-01-13T23:38:57.019Z,77.45
2023-01-13T23:41:26.820Z,67.70
2023-01-13T23:43:58.638Z,80.50
2023-01-13T23:46:27.714Z,76.82
2023-01-13T23:48:56.527Z,74.18
2023-01-13T23:51:27.690Z,68.25
2023-01-13T23:53:56.129Z,74.13
2023-01-13T23:56:27.426Z,71.22
2023-01-13T23:58:55.832Z,81.72
